Latest Weather Observations for Jandakot

IDW60801

Issued at 5:32 am WST Saturday 30 April 2016 (issued every 30 minutes, with the page automatically refreshed every 10 minutes)

About weather observations | Map of weather stations | Latest weather observations for WA | Other Formats
Station Details ID: 009172 Name: JANDAKOT AERO Lat: -32.10 Lon: 115.88 Height: 30.0 m
Data from the previous 72 hours. | See also: Recent months at Jandakot
Date/Time
WST
Temp
°C
App
Temp
°C
Dew
Point
Rel
Hum
%
Delta-T
°C
Wind Press
QNH
hPa
Press
MSL
hPa
Rain
since 9 am
mm
Dir
 
Spd
km/h
Gust
km/h
Spd
kts
Gust
kts
30/05:30am 11.6 10.5 9.8 89 0.9 SE 6 7 3 4 1018.9 1018.8 1.4
30/05:00am 11.5 11.4 10.9 96 0.3 SSE 2 9 1 5 1018.5 1018.4 1.4
30/04:30am 11.6 11.8 10.6 94 0.5 CALM 0 0 0 0 1018.2 1018.1 1.2
30/04:00am 11.4 10.4 10.4 94 0.5 SSE 6 7 3 4 1017.8 1017.7 1.2
30/03:30am 10.9 9.8 9.9 93 0.5 SSE 6 7 3 4 1017.7 1017.6 1.2
30/03:00am 11.5 10.2 9.9 90 0.8 SSE 7 9 4 5 1017.5 1017.4 1.2
30/02:30am 12.6 10.3 10.3 86 1.2 S 13 17 7 9 1017.5 1017.4 1.2
30/02:00am 13.3 11.2 11.2 87 1.1 S 13 20 7 11 1017.4 1017.3 1.2
30/01:30am 13.6 11.3 11.9 89 0.9 SSE 15 20 8 11 1017.1 1017.0 1.2
30/01:00am 14.0 13.3 13.3 96 0.4 SSE 9 13 5 7 1017.0 1016.9 1.2
30/12:30am 14.1 13.5 13.4 96 0.4 S 9 13 5 7 1016.9 1016.8 1.2
30/12:00am 14.2 13.6 13.5 96 0.4 SSE 9 11 5 6 1016.4 1016.3 1.0
 
Date/Time
WST
Temp
°C
App
Temp
°C
Dew
Point
Rel
Hum
%
Delta-T
°C
Wind Press
QNH
hPa
Press
MSL
hPa
Rain
since 9 am
mm
Dir
 
Spd
km/h
Gust
km/h
Spd
kts
Gust
kts
29/11:57pm 14.2 13.6 13.5 96 0.4 S 9 11 5 6 1016.5 1016.4 1.0
29/11:45pm 14.4 13.5 13.7 96 0.4 SSE 11 17 6 9 1016.6 1016.5 1.0
29/11:30pm 14.3 15.1 13.8 97 0.3 S 2 6 1 3 1016.5 1016.4 0.8
29/11:00pm 14.2 15.3 13.5 96 0.4 CALM 0 0 0 0 1016.4 1016.3 0.8
29/10:30pm 14.5 14.0 13.8 96 0.4 S 9 11 5 6 1016.4 1016.3 0.8
29/10:00pm 14.5 13.2 13.6 94 0.5 S 13 19 7 10 1016.3 1016.2 0.8
29/09:30pm 15.1 11.8 13.9 92 0.7 S 24 32 13 17 1016.2 1016.1 0.8
29/09:21pm 15.6 11.7 14.4 93 0.7 SSW 28 46 15 25 1016.0 1015.9 0.8
29/09:00pm 16.5 13.2 14.0 85 1.4 WSW 24 33 13 18 1015.5 1015.4 0.8
29/08:31pm 16.2 11.9 14.5 90 1.0 WSW 30 44 16 24 1015.5 1015.4 0.8
29/08:30pm 16.2 11.9 14.5 90 1.0 WSW 30 44 16 24 1015.5 1015.4 0.8
29/08:14pm 16.5 12.1 15.1 91 0.8 WSW 32 48 17 26 1015.5 1015.4 0.6
29/08:00pm 18.9 14.1 12.9 68 3.4 W 30 41 16 22 1015.1 1015.0 0.0
29/07:30pm 18.3 14.3 13.0 71 3.0 W 26 35 14 19 1015.1 1015.0 0.0
29/07:00pm 18.2 13.9 12.2 68 3.3 W 26 37 14 20 1014.9 1014.8 0.0
29/06:30pm 18.8 14.3 11.3 61 4.1 W 26 39 14 21 1015.0 1014.9 0.0
29/06:00pm 18.9 14.3 11.0 60 4.3 W 26 35 14 19 1014.5 1014.4 0.0
29/05:30pm 18.8 14.5 10.7 59 4.4 W 24 35 13 19 1014.5 1014.4 0.0
29/05:00pm 19.4 14.0 11.0 58 4.6 W 30 44 16 24 1014.4 1014.3 0.0
29/04:30pm 19.8 14.5 9.9 53 5.3 W 28 39 15 21 1014.6 1014.5 0.0
29/04:00pm 19.8 13.7 10.6 55 5.0 W 33 44 18 24 1014.6 1014.5 0.0
29/03:30pm 19.7 14.4 11.3 58 4.6 W 30 46 16 25 1014.7 1014.6 0.0
29/03:00pm 20.7 13.8 8.7 46 6.3 W 35 48 19 26 1014.6 1014.5 0.0
29/02:30pm 20.4 14.5 10.4 52 5.4 W 32 43 17 23 1014.5 1014.4 0.0
29/02:00pm 21.2 15.0 10.1 49 6.0 W 33 48 18 26 1014.3 1014.2 0.0
29/01:30pm 20.2 16.2 11.7 58 4.7 W 24 39 13 21 1014.7 1014.6 0.0
29/01:09pm 18.6 13.6 13.3 71 3.0 WSW 32 50 17 27 1015.0 1014.9 0.0
29/01:00pm 19.8 14.4 12.1 61 4.3 W 32 48 17 26 1014.9 1014.8 0.0
29/12:30pm 21.6 16.1 10.4 49 6.1 W 30 39 16 21 1015.1 1015.0 0.0
29/12:00pm 18.6 14.7 14.3 76 2.5 WNW 28 39 15 21 1015.5 1015.4 0.0
29/11:30am 21.0 14.9 9.9 49 6.0 W 32 41 17 22 1015.5 1015.4 0.0
29/11:00am 20.2 13.9 11.1 56 5.0 W 35 46 19 25 1015.7 1015.6 0.0
29/10:30am 19.7 15.1 12.2 62 4.2 WNW 28 43 15 23 1015.8 1015.7 0.0
29/10:00am 18.5 14.4 12.6 68 3.3 W 26 39 14 21 1016.1 1016.0 0.0
29/09:30am 18.7 15.4 12.8 68 3.3 W 22 39 12 21 1016.2 1016.1 0.0
29/09:00am 19.0 16.8 12.2 64 3.8 W 15 20 8 11 1016.1 1016.0 2.2
29/08:30am 18.4 14.4 10.4 59 4.3 W 22 32 12 17 1016.0 1015.9 2.2
29/08:00am 18.6 15.6 10.6 59 4.3 W 17 24 9 13 1015.8 1015.7 2.2
29/07:30am 17.5 13.9 9.7 60 4.1 W 19 28 10 15 1015.6 1015.5 2.2
29/07:00am 17.0 14.3 11.7 71 2.9 W 17 26 9 14 1015.4 1015.3 2.2
29/06:30am 16.8 15.8 12.3 75 2.5 W 9 13 5 7 1015.4 1015.3 2.2
29/06:00am 17.0 14.8 12.1 73 2.7 WSW 15 20 8 11 1015.5 1015.4 2.2
29/05:30am 16.2 13.8 9.9 66 3.3 W 13 17 7 9 1015.3 1015.2 2.2
29/05:00am 14.8 12.4 10.2 74 2.4 W 13 17 7 9 1015.3 1015.2 2.2
29/04:30am 15.2 13.2 10.2 72 2.6 W 11 15 6 8 1015.2 1015.1 2.2
29/04:00am 16.3 13.6 10.5 68 3.1 W 15 20 8 11 1015.3 1015.2 2.2
29/03:30am 16.5 14.3 10.7 68 3.1 WSW 13 17 7 9 1015.4 1015.3 2.2
29/03:00am 17.2 14.3 11.1 67 3.3 WSW 17 24 9 13 1015.5 1015.4 2.2
29/02:30am 14.4 14.9 12.8 90 0.9 SW 2 6 1 3 1015.8 1015.7 2.2
29/02:00am 15.2 14.6 12.3 83 1.6 WSW 7 9 4 5 1015.6 1015.5 2.2
29/01:30am 16.3 15.2 12.1 76 2.3 WSW 9 9 5 5 1015.7 1015.6 2.2
29/01:00am 16.1 15.8 12.7 80 1.9 NNW 6 19 3 10 1015.5 1015.4 2.2
29/12:30am 15.1 15.6 12.7 85 1.3 NNE 2 7 1 4 1015.7 1015.6 2.2
29/12:00am 15.6 14.9 12.1 80 1.9 ESE 7 9 4 5 1015.7 1015.6 2.2
 
Date/Time
WST
Temp
°C
App
Temp
°C
Dew
Point
Rel
Hum
%
Delta-T
°C
Wind Press
QNH
hPa
Press
MSL
hPa
Rain
since 9 am
mm
Dir
 
Spd
km/h
Gust
km/h
Spd
kts
Gust
kts
28/11:30pm 15.8 15.8 12.3 80 1.9 SSE 4 11 2 6 1015.9 1015.8 2.2
28/11:00pm 16.8 15.0 11.0 68 3.1 SW 11 17 6 9 1015.9 1015.8 2.2
28/10:30pm 17.5 15.5 11.4 67 3.3 SW 13 17 7 9 1016.1 1016.0 2.2
28/10:00pm 17.4 15.1 11.7 69 3.1 WSW 15 22 8 12 1016.1 1016.0 2.2
28/09:30pm 17.4 15.3 12.5 73 2.7 WSW 15 20 8 11 1016.0 1015.9 2.2
28/09:00pm 17.1 15.6 12.0 72 2.8 SW 11 17 6 9 1016.0 1015.9 2.2
28/08:30pm 16.7 15.1 11.7 72 2.7 SW 11 15 6 8 1015.8 1015.7 2.2
28/08:00pm 17.3 15.2 12.4 73 2.7 SW 15 20 8 11 1015.7 1015.6 2.2
28/07:30pm 17.6 15.2 11.5 67 3.3 SW 15 20 8 11 1015.6 1015.5 2.2
28/07:00pm 17.5 15.0 11.0 65 3.5 SW 15 20 8 11 1015.4 1015.3 2.2
28/06:30pm 17.9 14.7 11.3 65 3.6 SW 19 28 10 15 1015.0 1014.9 2.2
28/06:00pm 18.1 15.0 12.1 68 3.3 SW 20 26 11 14 1014.7 1014.6 2.2
28/05:30pm 18.8 14.1 10.7 59 4.4 WSW 26 39 14 21 1014.3 1014.2 2.2
28/05:00pm 18.9 15.1 11.2 61 4.2 SW 22 28 12 15 1014.1 1014.0 2.2
28/04:30pm 19.1 14.3 11.5 61 4.2 WSW 28 37 15 20 1013.9 1013.8 2.2
28/04:00pm 18.7 16.4 14.0 74 2.7 WSW 19 28 10 15 1014.0 1013.9 2.2
28/03:30pm 17.6 14.7 15.2 86 1.4 WSW 24 32 13 17 1013.9 1013.8 2.2
28/03:00pm 18.3 13.8 15.0 81 1.9 W 32 44 17 24 1013.9 1013.8 2.0
28/02:43pm 19.1 14.3 14.1 73 2.9 W 32 52 17 28 1013.6 1013.5 2.0
28/02:30pm 19.2 14.5 14.4 74 2.8 W 32 46 17 25 1013.6 1013.5 2.0
28/02:00pm 18.6 16.3 16.6 88 1.2 W 24 33 13 18 1013.5 1013.4 2.0
28/01:55pm 18.4 16.1 16.7 90 1.0 W 24 32 13 17 1013.6 1013.5 2.0
28/01:45pm 17.1 13.3 15.7 91 0.8 W 30 48 16 26 1013.7 1013.6 2.0
28/01:38pm 16.8 11.9 15.3 91 0.9 WSW 35 48 19 26 1014.0 1013.9 1.8
28/01:30pm 20.6 15.3 14.2 66 3.7 W 35 48 19 26 1013.7 1013.6 0.0
28/01:00pm 20.6 14.6 13.3 63 4.2 WNW 37 48 20 26 1014.0 1013.9 0.0
28/12:30pm 20.2 14.9 13.2 64 4.0 WNW 33 46 18 25 1014.4 1014.3 0.0
28/12:00pm 19.5 14.2 13.2 67 3.6 WNW 33 44 18 24 1014.8 1014.7 0.0
28/11:42am 19.0 14.7 13.2 69 3.3 W 28 52 15 28 1015.1 1015.0 0.0
28/11:30am 18.9 14.6 12.0 64 3.8 W 26 33 14 18 1014.9 1014.8 0.0
28/11:00am 19.6 12.8 9.2 51 5.5 W 35 44 19 24 1015.0 1014.9 0.0
28/10:30am 20.3 14.4 10.5 53 5.3 WNW 32 41 17 22 1015.2 1015.1 0.0
28/10:00am 19.1 15.3 11.2 60 4.3 NW 22 30 12 16 1015.5 1015.4 0.0
28/09:30am 18.1 12.7 12.3 69 3.2 WNW 32 46 17 25 1015.9 1015.8 0.0
28/09:25am 18.5 13.6 11.4 63 3.9 W 28 46 15 25 1015.8 1015.7 0.0
28/09:00am 18.2 14.8 11.4 64 3.7 W 20 30 11 16 1015.9 1015.8 2.8
28/08:30am 17.6 14.4 11.8 69 3.2 W 20 32 11 17 1015.8 1015.7 2.8
28/08:00am 15.9 15.0 12.6 81 1.8 NW 9 11 5 6 1015.4 1015.3 2.8
28/07:30am 12.9 11.2 12.3 96 0.3 N 13 15 7 8 1015.2 1015.1 2.8
28/07:00am 12.4 10.1 11.8 96 0.3 NE 15 17 8 9 1015.1 1015.0 2.0
28/06:30am 13.2 12.8 12.5 95 0.4 NNW 6 9 3 5 1015.1 1015.0 2.0
28/06:00am 11.4 10.0 11.0 97 0.2 NNE 9 11 5 6 1014.9 1014.8 1.4
28/05:30am 11.9 10.6 11.3 96 0.3 NE 9 11 5 6 1015.0 1014.9 1.4
28/05:00am 12.2 10.6 11.4 95 0.4 N 11 13 6 7 1015.0 1014.9 1.4
28/04:30am 11.9 9.8 11.3 96 0.3 NNE 13 17 7 9 1015.1 1015.0 1.4
28/04:00am 10.7 9.1 10.3 97 0.2 NNE 9 13 5 7 1015.1 1015.0 0.6
28/03:30am 10.7 9.0 9.9 95 0.4 NE 9 11 5 6 1015.4 1015.3 0.6
28/03:00am 11.2 10.8 9.8 91 0.7 S 2 7 1 4 1015.8 1015.7 0.6
28/02:30am 10.9 10.1 9.7 92 0.6 NNE 4 9 2 5 1016.2 1016.1 0.4
28/02:00am 10.6 9.3 9.8 95 0.4 ENE 7 9 4 5 1016.2 1016.1 0.4
28/01:30am 10.5 8.7 9.5 93 0.5 E 9 11 5 6 1016.2 1016.1 0.4
28/01:00am 11.2 9.9 10.0 92 0.6 SE 7 9 4 5 1016.3 1016.2 0.4
28/12:30am 11.1 9.0 9.7 91 0.7 N 11 11 6 6 1016.2 1016.1 0.4
28/12:00am 9.9 7.5 8.7 92 0.6 NNE 11 13 6 7 1016.4 1016.3 0.4
 
Date/Time
WST
Temp
°C
App
Temp
°C
Dew
Point
Rel
Hum
%
Delta-T
°C
Wind Press
QNH
hPa
Press
MSL
hPa
Rain
since 9 am
mm
Dir
 
Spd
km/h
Gust
km/h
Spd
kts
Gust
kts
27/11:30pm 10.9 8.7 9.5 91 0.7 N 11 13 6 7 1016.7 1016.6 0.4
27/11:00pm 10.5 9.1 9.5 93 0.5 NE 7 9 4 5 1016.7 1016.6 0.4
27/10:30pm 9.3 7.6 8.3 93 0.5 NE 7 9 4 5 1017.0 1016.9 0.4
27/10:00pm 8.9 8.3 7.6 91 0.6 CALM 0 7 0 4 1017.2 1017.1 0.4
27/09:30pm 9.6 9.2 8.4 92 0.6 CALM 0 0 0 0 1017.5 1017.4 0.4
27/09:00pm 10.3 10.1 8.9 91 0.7 CALM 0 0 0 0 1017.6 1017.5 0.4
27/08:30pm 10.5 9.2 9.1 91 0.7 ESE 6 9 3 5 1017.6 1017.5 0.4
27/08:00pm 10.6 10.4 9.0 90 0.8 CALM 0 0 0 0 1017.6 1017.5 0.4
27/07:30pm 11.0 10.8 9.2 89 0.9 CALM 0 0 0 0 1017.5 1017.4 0.4
27/07:00pm 12.1 12.0 9.5 84 1.3 CALM 0 4 0 2 1017.4 1017.3 0.4
27/06:30pm 13.5 11.9 10.2 80 1.7 WSW 9 9 5 5 1017.3 1017.2 0.4
27/06:00pm 14.4 13.1 10.0 75 2.3 WSW 7 9 4 5 1016.8 1016.7 0.4
27/05:30pm 15.7 13.9 9.5 66 3.2 WSW 9 15 5 8 1016.7 1016.6 0.4
27/05:00pm 16.2 13.4 8.5 60 3.9 W 13 17 7 9 1016.8 1016.7 0.4
27/04:30pm 17.3 14.4 8.1 54 4.7 WSW 13 19 7 10 1016.6 1016.5 0.4
27/04:00pm 17.6 14.9 7.2 50 5.2 WSW 11 15 6 8 1016.7 1016.6 0.4
27/03:30pm 17.3 12.9 7.3 52 5.0 W 20 24 11 13 1016.7 1016.6 0.4
27/03:00pm 18.2 15.8 8.7 54 4.9 W 11 17 6 9 1016.7 1016.6 0.4
27/02:30pm 17.8 16.2 8.7 55 4.7 WSW 7 15 4 8 1016.7 1016.6 0.4
27/02:00pm 17.4 16.0 9.4 59 4.2 WNW 7 11 4 6 1016.8 1016.7 0.4
27/01:30pm 16.0 14.5 9.2 64 3.5 WNW 7 13 4 7 1017.0 1016.9 0.4
27/01:00pm 16.0 13.0 9.2 64 3.5 WNW 15 20 8 11 1017.4 1017.3 0.4
27/12:30pm 16.3 13.9 10.2 67 3.2 SW 13 17 7 9 1017.6 1017.5 0.4
27/12:00pm 16.7 15.3 9.4 62 3.8 WNW 7 11 4 6 1017.9 1017.8 0.4
27/11:30am 16.1 14.8 9.8 66 3.3 NE 7 11 4 6 1018.0 1017.9 0.4
27/11:00am 15.5 13.6 10.6 72 2.6 NNE 11 17 6 9 1018.4 1018.3 0.4
27/10:30am 14.0 12.0 10.1 77 2.0 ENE 11 17 6 9 1018.7 1018.6 0.4
27/10:00am 13.3 11.9 10.8 85 1.3 ENE 9 11 5 6 1018.8 1018.7 0.4
27/09:30am 12.4 10.9 10.7 89 0.9 ENE 9 11 5 6 1018.8 1018.7 0.4
27/09:26am 12.4 10.9 10.7 89 0.9 ENE 9 11 5 6 1018.9 1018.8 0.4
27/09:10am 12.4 12.6 10.7 89 0.9 CALM 0 0 0 0 1019.1 1019.0 0.4
27/09:00am 12.3 12.1 10.6 89 0.9 ENE 2 6 1 3 1019.1 1019.0 1.8
27/08:30am 11.9 11.0 10.5 91 0.7 ENE 6 7 3 4 1018.8 1018.7 1.8
27/08:00am 11.4 9.8 10.2 92 0.6 E 9 11 5 6 1018.4 1018.3 1.8
27/07:30am 10.9 9.3 10.3 96 0.3 NNE 9 13 5 7 1018.1 1018.0 1.8
27/07:00am 9.8 9.6 9.0 95 0.4 CALM 0 2 0 1 1017.8 1017.7 1.8
27/06:30am 9.5 8.2 9.1 97 0.2 NE 6 7 3 4 1017.7 1017.6 1.8
27/06:00am 10.0 8.8 9.4 96 0.3 NE 6 7 3 4 1017.6 1017.5 1.8

Other Formats:

Comma delimited format used in spreadsheet applications
http://www.bom.gov.au/fwo/IDW60801/IDW60801.94609.axf

JavaScript Object Notation format (JSON) in row-major order
http://www.bom.gov.au/fwo/IDW60801/IDW60801.94609.json